x

Southwest Hawaii - 215nm Ssw Of Hilo, Hi (51002) Wave Buoy

3:50pm - Sat 25th Apr 2015 All times are HST. -10 hours from GMT.

  • Sig Wave height 7.5ft
  • Swell Direction
  • Peak Period 9s
  • Average Period 7s
  • Wind
    13mph, 16mph gusts
  • Sea Temp 79°f
  • Air Temp 79°f
  • Sea Pressure 1012.9mb
  • Southwest Hawaii - 215nm Ssw Of Hilo, Hi
  • Southwest Hawaii - 215nm Ssw Of Hilo, Hi

More Historic Weather Station data

Upgrade to MSW Pro to gain access to the past 30 days of data for over 8000 Wavebouys and Weather Stations around the globe.

Join Pro

Comparision Forecast

View Surf forecast
   
Sat 04/25 3:50pm 7.5ft 9s 7s 13 16 mph 1012.9mb 79f 79f
2:50pm 7ft 9s 7s 11 13 mph 1013.2mb 79f 78f
1:50pm 7ft 9s 7s 16 18 mph 1013.5mb 79f 78f
12:50pm 7ft 9s 7s 13 16 mph 1014.3mb 79f 78f
11:50am 7ft 9s 7s 13 18 mph 1014.8mb 79f 78f
10:50am 7ft 9s 7s 16 18 mph 1014.9mb 79f 78f
9:50am 7.5ft 10s 7s 13 18 mph 1015mb 79f 78f
8:50am 8ft 9s 7s 16 18 mph 1014.6mb 79f 78f
7:50am 7ft 9s 7s 16 18 mph 1014.3mb 79f 78f
6:50am 7.5ft 10s 7s 16 20 mph 1013.5mb 79f 78f
5:50am 8ft 10s 7s 16 20 mph 1013.2mb 79f 78f
4:50am 8ft 10s 7s 18 22 mph 1012.7mb 79f 78f
3:50am 7.5ft 10s 6s 18 22 mph 1012.6mb 79f 78f
2:50am 8ft 9s 7s 18 20 mph 1012.9mb 79f 78f
1:50am 7.5ft 10s 6s 18 22 mph 1013.4mb 79f 78f
12:50am 8ft 10s 6s 20 22 mph 1013.8mb 79f 78f
Fri 04/24 11:50pm 8ft 10s 7s 20 25 mph 1014.3mb 79f 78f
10:50pm 7.5ft 9s 6s 18 22 mph 1015.1mb 79f 78f
9:50pm 8ft 10s 7s 18 22 mph 1014.9mb 79f 78f
8:50pm 8ft 10s 6s 20 25 mph 1014.6mb 79f 78f
7:50pm 8.5ft 10s 7s 20 25 mph 1014.2mb 79f 79f
6:50pm 8ft 10s 6s 20 22 mph 1013.4mb 79f 78f
5:50pm 9ft 10s 7s 22 27 mph 1012.5mb 79f 78f
4:50pm 8ft 10s 6s 22 25 mph 1012.2mb 79f 79f
3:50pm 9ft 10s 6s 20 25 mph 1012.8mb 79f 79f
2:50pm 8.5ft 9s 6s 22 27 mph 1012.9mb 79f 79f
1:50pm 9ft 10s 6s 22 25 mph 1013.3mb 79f 79f
12:50pm 8.5ft 10s 6s 22 27 mph 1013.7mb 79f 79f
11:50am 8ft 10s 6s 25 27 mph 1013.8mb 79f 78f
10:50am 8.5ft 10s 7s 22 27 mph 1014.2mb 79f 78f
9:50am 9ft 9s 6s 25 29 mph 1014.4mb 79f 79f
8:50am 8ft 10s 6s 25 27 mph 1014.3mb 79f 78f
7:50am 8ft 10s 6s 22 29 mph 1014mb 79f 79f
6:50am 8.5ft 9s 6s 22 25 mph 1013.7mb 79f 78f
5:50am 9ft 10s 7s 20 25 mph 1013.5mb 79f 78f
4:50am 8ft 10s 7s 20 25 mph 1013mb 79f 78f
3:50am 8.5ft 10s 7s 18 25 mph 1013mb 79f 77f
2:50am 8.5ft 10s 7s 20 27 mph 1012.9mb 79f 78f
1:50am 8ft 10s 7s 20 25 mph 1013.5mb 79f 78f
12:50am 8ft 9s 7s 20 25 mph 1014mb 79f 78f
Thu 04/23 11:50pm 8ft 10s 7s 18 22 mph 1014.9mb 79f 78f
10:50pm 8ft 10s 7s 18 22 mph 1015.4mb 79f 78f
9:50pm 8ft 10s 6s 18 22 mph 1015.6mb 79f 78f
8:50pm 8ft 10s 6s 18 22 mph 1015mb 78f 78f
7:50pm 8ft 10s 7s 18 22 mph 1014.3mb 78f 78f
6:50pm 8.5ft 9s 7s 20 22 mph 1013.4mb 78f 78f
5:50pm 8ft 10s 7s 20 25 mph 1012.8mb 78f 78f
4:50pm 8ft 9s 6s 20 25 mph 1012.4mb 78f 78f
3:50pm 9ft 10s 7s 20 25 mph 1012.4mb 78f 78f
2:50pm 8.5ft 9s 6s 20 25 mph 1012.7mb 78f 78f
1:50pm 8ft 9s 6s 20 25 mph 1013.1mb 78f 78f
12:50pm 8ft 9s 7s 20 22 mph 1014mb 78f 78f
11:50am 9ft 9s 7s 18 20 mph 1014.5mb 78f 78f
10:50am 8.5ft 9s 7s 20 22 mph 1014.6mb 78f 78f
9:50am 8.5ft 9s 7s 20 25 mph 1014.8mb 78f 78f
8:50am 9ft 9s 7s 22 27 mph 1014.1mb 78f 78f
7:50am 8.5ft 9s 7s 20 22 mph 1014.3mb 78f 78f
6:50am 9ft 9s 7s 20 25 mph 1013.9mb 78f 78f
5:50am 9ft 9s 7s 22 27 mph 1013.3mb 78f 78f
4:50am 9ft 9s 7s 20 22 mph 1013.4mb 78f 78f
3:50am 9ft 9s 7s 20 25 mph 1013.2mb 78f 78f
2:50am 9ft 9s 7s 20 27 mph 1013.2mb 78f 78f
1:50am 8ft 8s 6s 20 25 mph 1013.6mb 78f 78f
12:50am 8.5ft 9s 6s 22 25 mph 1013.7mb 78f 78f
Wed 04/22 11:50pm 9ft 9s 7s 22 27 mph 1013.8mb 78f 78f
10:50pm 9ft 9s 7s 22 27 mph 1014.6mb 78f 78f
9:50pm 9ft 9s 7s 22 27 mph 1014.3mb 78f 78f
8:50pm 8.5ft 9s 7s 22 27 mph 1014.3mb 79f 78f
7:50pm 8.5ft 9s 6s 20 25 mph 1013.7mb 79f 78f
6:50pm 8ft 10s 6s 20 25 mph 1012.8mb 79f 78f
5:50pm 8.5ft 10s 7s 20 25 mph 1012.4mb 79f 79f
4:50pm  -   -   -  20 25 mph 1012.3mb 79f 79f
3:50pm 8.5ft 9s 7s 18 20 mph 1012.7mb 79f 79f
2:50pm 8.5ft 10s 7s 18 20 mph 1013.1mb 79f 78f
1:50pm 9ft 9s 7s 20 22 mph 1013mb 79f 78f
12:50pm 9ft 9s 7s 18 22 mph 1013.8mb 79f 78f
11:50am 9ft 10s 7s 20 25 mph 1014.3mb 79f 78f
10:50am 9ft 10s 7s 20 25 mph 1014.7mb 79f 78f
9:50am 8.5ft 9s 6s 22 27 mph 1015.1mb 79f 78f
8:50am 9ft 9s 7s 22 27 mph 1014.9mb 79f 78f
7:50am 9ft 9s 6s 22 27 mph 1014.7mb 79f 78f
6:50am 9ft 9s 7s 20 25 mph 1014.3mb 79f 78f
5:50am 10ft 9s 7s 20 25 mph 1013.6mb 79f 78f
4:50am 9ft 9s 7s 22 25 mph 1013.2mb 79f 77f
3:50am 10ft 9s 7s 20 25 mph 1013.4mb 79f 78f
2:50am 9.5ft 9s 7s 22 25 mph 1013.5mb 79f 78f